Time;durP1;ratioP1;P1;durP2;ratioP2;P2;SDS_P1;SDS_P2;PMS_P1;PMS_P2;Temp;Humidity;BMP_temperature;BMP_pressure;BME280_temperature;BME280_humidity;BME280_pressure;Samples;Min_cycle;Max_cycle;Signal;HPM_P1;HPM_P2
2023/08/09 00:00:24;;;;;;;5.37;1.60;;;;;;;;;;5101009;28;20435;-77
2023/08/09 00:02:51;;;;;;;4.10;1.00;;;;;;;;;;5100656;28;20451;-77
2023/08/09 00:05:18;;;;;;;2.10;1.10;;;;;;;;;;5099002;28;20470;-77
2023/08/09 00:07:46;;;;;;;2.43;0.90;;;;;;;;;;5102170;28;20455;-76
2023/08/09 00:10:21;;;;;;;3.00;0.70;;;;;;;;;;5102510;28;20487;-76
2023/08/09 00:12:49;;;;;;;1.83;0.70;;;;;;;;;;5101996;28;20440;-77
2023/08/09 00:15:18;;;;;;;2.20;1.00;;;;;;;;;;5102708;28;20494;-77
2023/08/09 00:17:46;;;;;;;4.53;1.00;;;;;;;;;;5099539;28;20727;-77
2023/08/09 00:20:14;;;;;;;2.80;1.20;;;;;;;;;;5102719;28;20440;-77
2023/08/09 00:22:42;;;;;;;6.57;1.40;;;;;;;;;;5104665;28;20518;-77
2023/08/09 00:25:10;;;;;;;3.23;1.10;;;;;;;;;;5103517;28;20809;-78
2023/08/09 00:27:38;;;;;;;4.03;2.47;;;;;;;;;;5104368;28;20459;-77
2023/08/09 00:30:10;;;;;;;2.97;1.10;;;;;;;;;;5102270;28;20519;-78
2023/08/09 00:32:39;;;;;;;4.07;1.57;;;;;;;;;;5102538;28;20525;-77
2023/08/09 00:35:08;;;;;;;3.53;1.97;;;;;;;;;;5101126;28;20440;-77
2023/08/09 00:37:36;;;;;;;6.63;1.10;;;;;;;;;;5104786;28;20482;-77
2023/08/09 00:40:11;;;;;;;4.80;0.90;;;;;;;;;;5102235;28;20936;-77
2023/08/09 00:42:39;;;;;;;5.63;1.00;;;;;;;;;;5102238;28;20456;-78
2023/08/09 00:45:07;;;;;;;2.23;0.97;;;;;;;;;;5100684;28;20462;-78
2023/08/09 00:47:35;;;;;;;3.33;1.87;;;;;;;;;;5101650;28;20474;-78
2023/08/09 00:50:08;;;;;;;6.30;1.37;;;;;;;;;;5102095;28;20483;-77
2023/08/09 00:52:36;;;;;;;2.60;1.10;;;;;;;;;;5101282;28;20836;-76
2023/08/09 00:55:04;;;;;;;2.70;1.00;;;;;;;;;;5102199;28;21135;-77
2023/08/09 00:57:31;;;;;;;5.93;1.40;;;;;;;;;;5101333;28;20454;-77
2023/08/09 00:59:59;;;;;;;2.20;1.00;;;;;;;;;;5099815;28;20458;-78
2023/08/09 01:02:26;;;;;;;2.57;1.17;;;;;;;;;;5100153;28;20530;-78
2023/08/09 01:04:54;;;;;;;4.90;1.20;;;;;;;;;;5101084;28;20548;-78
2023/08/09 01:07:29;;;;;;;2.17;0.83;;;;;;;;;;5100056;28;20477;-77
2023/08/09 01:10:06;;;;;;;2.53;1.10;;;;;;;;;;5098641;28;20538;-77
2023/08/09 01:12:36;;;;;;;4.93;1.67;;;;;;;;;;5101404;28;20863;-78
2023/08/09 01:15:04;;;;;;;3.37;1.37;;;;;;;;;;5102255;28;20539;-78
2023/08/09 01:17:33;;;;;;;3.27;1.10;;;;;;;;;;5101958;28;20521;-78
2023/08/09 01:20:05;;;;;;;4.63;1.50;;;;;;;;;;5101407;28;20530;-77
2023/08/09 01:22:36;;;;;;;2.57;1.00;;;;;;;;;;5100884;28;20510;-77
2023/08/09 01:25:06;;;;;;;6.00;1.43;;;;;;;;;;5099715;28;20520;-77
2023/08/09 01:27:34;;;;;;;5.23;1.33;;;;;;;;;;5099138;28;20463;-77
2023/08/09 01:30:07;;;;;;;4.67;1.70;;;;;;;;;;5099519;28;20847;-77
2023/08/09 01:32:35;;;;;;;3.40;1.03;;;;;;;;;;5100985;28;20454;-77
2023/08/09 01:35:03;;;;;;;9.43;2.20;;;;;;;;;;5101285;28;20460;-78
2023/08/09 01:37:32;;;;;;;3.17;1.10;;;;;;;;;;5099698;28;20497;-76
2023/08/09 01:40:01;;;;;;;5.23;1.43;;;;;;;;;;5096949;28;20459;-77
2023/08/09 01:42:30;;;;;;;1.90;0.80;;;;;;;;;;5097372;28;20839;-75
2023/08/09 01:44:57;;;;;;;3.43;1.20;;;;;;;;;;5098408;28;20455;-77
2023/08/09 01:47:25;;;;;;;9.40;1.90;;;;;;;;;;5096815;28;20724;-76
2023/08/09 01:49:52;;;;;;;5.10;1.73;;;;;;;;;;5098788;28;20455;-77
2023/08/09 01:52:21;;;;;;;13.53;1.40;;;;;;;;;;5099547;28;20516;-76
2023/08/09 01:54:51;;;;;;;5.80;1.90;;;;;;;;;;5100145;28;20444;-76
2023/08/09 01:57:19;;;;;;;2.53;1.10;;;;;;;;;;5098996;28;20487;-77
2023/08/09 01:59:47;;;;;;;4.87;1.60;;;;;;;;;;5101488;28;20448;-75
2023/08/09 02:02:16;;;;;;;7.30;1.80;;;;;;;;;;5100614;28;20458;-77
2023/08/09 02:04:44;;;;;;;3.97;0.97;;;;;;;;;;5098941;28;20483;-76
2023/08/09 02:07:12;;;;;;;4.17;1.83;;;;;;;;;;5096267;28;21128;-77
2023/08/09 02:09:40;;;;;;;3.80;0.90;;;;;;;;;;5098798;28;20463;-77
2023/08/09 02:12:08;;;;;;;3.23;0.90;;;;;;;;;;5097912;28;20535;-77
2023/08/09 02:14:35;;;;;;;4.23;1.00;;;;;;;;;;5098220;28;20546;-76
2023/08/09 02:17:05;;;;;;;4.87;1.00;;;;;;;;;;5098481;28;20467;-77
2023/08/09 02:19:33;;;;;;;5.77;1.40;;;;;;;;;;5097208;28;20454;-76
2023/08/09 02:22:00;;;;;;;4.67;1.40;;;;;;;;;;5100388;28;20471;-77
2023/08/09 02:24:28;;;;;;;7.27;1.53;;;;;;;;;;5085094;28;20511;-76
2023/08/09 02:26:55;;;;;;;4.50;1.47;;;;;;;;;;5079466;28;20456;-77
2023/08/09 02:29:23;;;;;;;2.80;1.10;;;;;;;;;;5078043;28;20836;-77
2023/08/09 02:31:50;;;;;;;6.93;1.33;;;;;;;;;;5078937;28;20700;-77
2023/08/09 02:34:19;;;;;;;5.57;1.43;;;;;;;;;;5078355;28;20810;-76
2023/08/09 02:36:47;;;;;;;4.60;1.30;;;;;;;;;;5079008;28;20459;-77
2023/08/09 02:39:15;;;;;;;4.53;1.30;;;;;;;;;;5077736;28;20462;-77
2023/08/09 02:41:44;;;;;;;3.00;1.30;;;;;;;;;;5077120;28;20467;-77
2023/08/09 02:44:12;;;;;;;7.10;1.50;;;;;;;;;;5076294;28;20448;-77
2023/08/09 02:46:39;;;;;;;2.73;1.30;;;;;;;;;;5076160;28;20464;-77
2023/08/09 02:49:07;;;;;;;5.20;1.23;;;;;;;;;;5077478;28;20463;-77
2023/08/09 02:51:36;;;;;;;2.87;1.20;;;;;;;;;;5080195;28;20485;-78
2023/08/09 02:54:04;;;;;;;2.57;1.40;;;;;;;;;;5080521;28;20449;-76
2023/08/09 02:56:32;;;;;;;4.53;1.13;;;;;;;;;;5078065;28;20452;-78
2023/08/09 02:58:59;;;;;;;2.23;1.10;;;;;;;;;;5082665;28;20444;-78
2023/08/09 03:01:29;;;;;;;3.40;1.10;;;;;;;;;;5081998;28;20440;-77
2023/08/09 03:03:57;;;;;;;4.37;1.30;;;;;;;;;;5077339;28;20563;-75
2023/08/09 03:06:24;;;;;;;2.23;1.13;;;;;;;;;;5077955;28;21019;-78
2023/08/09 03:08:53;;;;;;;7.97;2.40;;;;;;;;;;5077461;28;20456;-78
2023/08/09 03:11:22;;;;;;;7.70;1.47;;;;;;;;;;5081812;28;20641;-77
2023/08/09 03:13:50;;;;;;;3.50;2.10;;;;;;;;;;5079127;28;20452;-77
2023/08/09 03:16:17;;;;;;;3.53;1.30;;;;;;;;;;5078594;28;20452;-77
2023/08/09 03:18:45;;;;;;;3.37;1.17;;;;;;;;;;5079940;28;20452;-77
2023/08/09 03:21:12;;;;;;;3.27;1.53;;;;;;;;;;5079709;28;20908;-77
2023/08/09 03:23:41;;;;;;;6.30;1.70;;;;;;;;;;5076516;28;20476;-76
2023/08/09 03:26:10;;;;;;;3.23;2.20;;;;;;;;;;5080913;28;20862;-77
2023/08/09 03:28:37;;;;;;;4.00;1.30;;;;;;;;;;5076363;28;20445;-77
2023/08/09 03:31:08;;;;;;;3.80;1.30;;;;;;;;;;5077436;28;20484;-76
2023/08/09 03:33:35;;;;;;;3.83;1.30;;;;;;;;;;5076112;28;20451;-76
2023/08/09 03:36:04;;;;;;;7.90;1.77;;;;;;;;;;5077912;28;20939;-77
2023/08/09 03:38:31;;;;;;;5.93;1.37;;;;;;;;;;5082516;28;20523;-77
2023/08/09 03:40:58;;;;;;;4.13;1.40;;;;;;;;;;5081089;28;20440;-77
2023/08/09 03:43:32;;;;;;;2.63;1.13;;;;;;;;;;5082010;28;20464;-77
2023/08/09 03:46:00;;;;;;;3.87;1.20;;;;;;;;;;5079980;28;20530;-78
2023/08/09 03:48:27;;;;;;;3.80;1.17;;;;;;;;;;5079674;28;20538;-77
2023/08/09 03:50:57;;;;;;;4.37;1.43;;;;;;;;;;5077527;28;21117;-77
2023/08/09 03:53:25;;;;;;;4.00;1.30;;;;;;;;;;5078698;28;20704;-78
2023/08/09 03:55:52;;;;;;;4.17;1.30;;;;;;;;;;5078185;28;20717;-76
2023/08/09 03:58:20;;;;;;;4.70;1.10;;;;;;;;;;5077710;28;20805;-76
2023/08/09 04:00:49;;;;;;;4.77;1.43;;;;;;;;;;5076930;28;20518;-77
2023/08/09 04:03:17;;;;;;;4.20;1.10;;;;;;;;;;5080806;28;20547;-77
2023/08/09 04:05:44;;;;;;;4.80;1.17;;;;;;;;;;5077605;28;20464;-77
2023/08/09 04:08:12;;;;;;;4.47;1.67;;;;;;;;;;5076510;28;20441;-77
2023/08/09 04:10:39;;;;;;;3.10;1.03;;;;;;;;;;5079805;28;20491;-77
2023/08/09 04:13:07;;;;;;;4.53;1.83;;;;;;;;;;5080285;28;20459;-77
2023/08/09 04:15:35;;;;;;;4.43;1.67;;;;;;;;;;5079586;28;20522;-76
2023/08/09 04:18:04;;;;;;;5.93;1.87;;;;;;;;;;5077316;28;20526;-77
2023/08/09 04:20:32;;;;;;;4.13;1.60;;;;;;;;;;5078452;28;20499;-77
2023/08/09 04:23:01;;;;;;;4.63;1.40;;;;;;;;;;5079014;28;20441;-77
2023/08/09 04:25:28;;;;;;;2.23;0.97;;;;;;;;;;5077197;28;20579;-75
2023/08/09 04:27:56;;;;;;;5.60;1.87;;;;;;;;;;5077458;28;20450;-77
2023/08/09 04:30:24;;;;;;;6.77;1.40;;;;;;;;;;5077475;28;20449;-77
2023/08/09 04:32:52;;;;;;;5.13;1.27;;;;;;;;;;5079327;28;20488;-77
2023/08/09 04:35:21;;;;;;;2.73;1.40;;;;;;;;;;5078248;28;20464;-77
2023/08/09 04:37:48;;;;;;;4.47;1.20;;;;;;;;;;5077835;28;21019;-76
2023/08/09 04:40:16;;;;;;;5.87;1.50;;;;;;;;;;5077427;28;20472;-76
2023/08/09 04:42:45;;;;;;;6.47;2.03;;;;;;;;;;5078249;28;20441;-77
2023/08/09 04:45:13;;;;;;;5.80;1.53;;;;;;;;;;5078085;28;20464;-77
2023/08/09 04:47:42;;;;;;;1.83;0.93;;;;;;;;;;5076598;28;20487;-78
2023/08/09 04:50:10;;;;;;;7.00;2.00;;;;;;;;;;5075608;28;20531;-77
2023/08/09 04:52:39;;;;;;;5.53;1.60;;;;;;;;;;5076186;28;20519;-77
2023/08/09 04:55:06;;;;;;;4.23;1.57;;;;;;;;;;5075400;28;20472;-76
2023/08/09 04:57:34;;;;;;;3.93;1.73;;;;;;;;;;5074328;28;20758;-77
2023/08/09 05:00:08;;;;;;;3.07;1.10;;;;;;;;;;5073812;28;20463;-76
2023/08/09 05:02:35;;;;;;;3.23;2.00;;;;;;;;;;5074963;28;20455;-76
2023/08/09 05:05:03;;;;;;;4.37;1.43;;;;;;;;;;5074291;28;20444;-77
2023/08/09 05:07:31;;;;;;;3.37;1.87;;;;;;;;;;5075475;28;20524;-77
2023/08/09 05:10:14;;;;;;;5.20;1.70;;;;;;;;;;5073579;28;20448;-76
2023/08/09 05:12:42;;;;;;;4.80;1.47;;;;;;;;;;5075256;28;20481;-77
2023/08/09 05:15:10;;;;;;;3.30;1.67;;;;;;;;;;5075958;28;20445;-75
2023/08/09 05:17:37;;;;;;;3.87;1.40;;;;;;;;;;5074140;28;20448;-77
2023/08/09 05:20:08;;;;;;;4.10;1.13;;;;;;;;;;5075232;28;20463;-76
2023/08/09 05:22:36;;;;;;;4.50;1.50;;;;;;;;;;5076057;28;20551;-78
2023/08/09 05:25:05;;;;;;;3.30;1.50;;;;;;;;;;5075771;28;20472;-77
2023/08/09 05:27:35;;;;;;;3.00;1.10;;;;;;;;;;5077604;28;20459;-77
2023/08/09 05:30:06;;;;;;;4.30;1.80;;;;;;;;;;5081177;28;20452;-77
2023/08/09 05:32:34;;;;;;;3.80;1.30;;;;;;;;;;5078414;28;20567;-77
2023/08/09 05:35:01;;;;;;;4.83;1.67;;;;;;;;;;5080049;28;20547;-77
2023/08/09 05:37:29;;;;;;;3.90;1.70;;;;;;;;;;5078046;28;20464;-75
2023/08/09 05:39:56;;;;;;;3.53;1.40;;;;;;;;;;5077064;28;20450;-76
2023/08/09 05:42:25;;;;;;;4.30;1.30;;;;;;;;;;5081113;28;20893;-76
2023/08/09 05:44:53;;;;;;;3.33;1.50;;;;;;;;;;5081077;28;20456;-77
2023/08/09 05:47:20;;;;;;;6.23;1.67;;;;;;;;;;5085432;28;20432;-76
2023/08/09 05:49:48;;;;;;;13.90;2.03;;;;;;;;;;5081320;28;20610;-75
2023/08/09 05:52:15;;;;;;;5.83;1.83;;;;;;;;;;5079736;28;20692;-76
2023/08/09 05:54:43;;;;;;;4.60;1.93;;;;;;;;;;5078584;28;20980;-77
2023/08/09 05:57:10;;;;;;;3.23;1.73;;;;;;;;;;5078511;28;20872;-76
2023/08/09 05:59:39;;;;;;;5.07;2.10;;;;;;;;;;5080191;28;20693;-77
2023/08/09 06:02:07;;;;;;;11.00;1.97;;;;;;;;;;5080100;28;20517;-77
2023/08/09 06:04:35;;;;;;;4.73;1.40;;;;;;;;;;5080485;28;20458;-77
2023/08/09 06:07:03;;;;;;;4.20;2.07;;;;;;;;;;5080663;28;20452;-77
2023/08/09 06:09:31;;;;;;;4.20;1.93;;;;;;;;;;5078995;28;20465;-77
2023/08/09 06:11:58;;;;;;;4.17;1.40;;;;;;;;;;5080365;28;20484;-78
2023/08/09 06:14:27;;;;;;;4.20;1.53;;;;;;;;;;5081241;28;21009;-78
2023/08/09 06:16:56;;;;;;;4.33;1.50;;;;;;;;;;5080984;28;20471;-76
2023/08/09 06:19:23;;;;;;;5.60;1.70;;;;;;;;;;5080476;28;20449;-75
2023/08/09 06:21:51;;;;;;;3.40;1.40;;;;;;;;;;5079667;28;20453;-77
2023/08/09 06:24:19;;;;;;;8.77;1.60;;;;;;;;;;5081221;28;20980;-76
2023/08/09 06:26:47;;;;;;;4.20;1.40;;;;;;;;;;5077127;28;20509;-77
2023/08/09 06:29:17;;;;;;;3.93;1.83;;;;;;;;;;5076675;28;20571;-77
2023/08/09 06:31:44;;;;;;;7.37;1.87;;;;;;;;;;5079163;28;20468;-77
2023/08/09 06:34:16;;;;;;;3.10;1.43;;;;;;;;;;5077533;28;20472;-77
2023/08/09 06:36:43;;;;;;;3.67;1.40;;;;;;;;;;5072676;28;20663;-77
2023/08/09 06:39:11;;;;;;;3.00;1.80;;;;;;;;;;5075136;28;20556;-77
2023/08/09 06:41:39;;;;;;;7.37;1.47;;;;;;;;;;5075583;28;20457;-78
2023/08/09 06:44:07;;;;;;;9.13;4.67;;;;;;;;;;5070199;28;20464;-78
2023/08/09 06:46:35;;;;;;;4.27;1.50;;;;;;;;;;5058413;28;20500;-78
2023/08/09 06:49:02;;;;;;;3.87;1.30;;;;;;;;;;5078423;28;20476;-78
2023/08/09 06:51:31;;;;;;;13.63;1.83;;;;;;;;;;5078676;28;20461;-76
2023/08/09 06:53:58;;;;;;;4.90;1.67;;;;;;;;;;5066786;28;20555;-77
2023/08/09 06:56:26;;;;;;;4.10;1.30;;;;;;;;;;5066029;28;20856;-77
2023/08/09 06:58:54;;;;;;;4.30;1.40;;;;;;;;;;5066149;28;20480;-77
2023/08/09 07:01:21;;;;;;;3.17;1.33;;;;;;;;;;5070135;28;20459;-77
2023/08/09 07:03:50;;;;;;;4.93;1.47;;;;;;;;;;5071041;28;20694;-76
2023/08/09 07:06:18;;;;;;;2.40;1.20;;;;;;;;;;5070967;28;20692;-78
2023/08/09 07:08:47;;;;;;;8.20;1.63;;;;;;;;;;5073062;28;20860;-78
2023/08/09 07:11:15;;;;;;;2.77;1.20;;;;;;;;;;5070949;28;20457;-77
2023/08/09 07:13:42;;;;;;;6.63;1.70;;;;;;;;;;5058689;28;20485;-77
2023/08/09 07:16:10;;;;;;;5.10;1.30;;;;;;;;;;5057326;28;20470;-78
2023/08/09 07:18:38;;;;;;;3.27;1.60;;;;;;;;;;5073622;28;20570;-78
2023/08/09 07:21:09;;;;;;;3.83;1.30;;;;;;;;;;5082026;28;20449;-79
2023/08/09 07:23:36;;;;;;;4.27;1.40;;;;;;;;;;5076363;28;20879;-79
2023/08/09 07:26:05;;;;;;;3.30;1.70;;;;;;;;;;5075910;28;20449;-76
2023/08/09 07:28:33;;;;;;;4.73;1.80;;;;;;;;;;5077906;28;20452;-78
2023/08/09 07:31:00;;;;;;;3.80;1.40;;;;;;;;;;5075765;28;20457;-77
2023/08/09 07:33:46;;;;;;;4.33;1.30;;;;;;;;;;5070903;28;20480;-76
2023/08/09 07:36:14;;;;;;;7.10;1.47;;;;;;;;;;5069773;28;20448;-77
2023/08/09 07:38:41;;;;;;;4.43;1.23;;;;;;;;;;5073005;28;20440;-78
2023/08/09 07:41:11;;;;;;;4.07;1.53;;;;;;;;;;5072396;28;20452;-77
2023/08/09 07:43:39;;;;;;;5.93;1.20;;;;;;;;;;5067652;28;20461;-78
2023/08/09 07:46:09;;;;;;;3.70;1.03;;;;;;;;;;5070410;28;20795;-78
2023/08/09 07:48:39;;;;;;;4.77;2.20;;;;;;;;;;5078415;28;20457;-78
2023/08/09 07:51:11;;;;;;;4.70;1.70;;;;;;;;;;5077035;28;20472;-77
2023/08/09 07:53:39;;;;;;;3.17;1.17;;;;;;;;;;5076991;28;20487;-80
2023/08/09 07:56:10;;;;;;;5.13;1.33;;;;;;;;;;5078372;28;20445;-76
2023/08/09 07:58:37;;;;;;;3.50;1.20;;;;;;;;;;5075581;28;20456;-77
2023/08/09 08:01:08;;;;;;;7.60;1.70;;;;;;;;;;5073988;28;20460;-77
2023/08/09 08:03:35;;;;;;;4.93;1.23;;;;;;;;;;5073554;28;20478;-77
2023/08/09 08:06:05;;;;;;;5.73;1.70;;;;;;;;;;5070473;28;20606;-77
2023/08/09 08:08:34;;;;;;;5.03;1.60;;;;;;;;;;5074349;28;20702;-78
2023/08/09 08:11:01;;;;;;;5.63;4.23;;;;;;;;;;5076356;28;20456;-78
2023/08/09 08:13:33;;;;;;;6.27;1.33;;;;;;;;;;5076501;28;20559;-79
2023/08/09 08:16:01;;;;;;;4.47;1.33;;;;;;;;;;5068675;28;20454;-77
2023/08/09 08:18:29;;;;;;;10.97;2.63;;;;;;;;;;5049827;28;20485;-77
2023/08/09 08:21:00;;;;;;;4.17;1.43;;;;;;;;;;5052936;28;20461;-75
2023/08/09 08:23:27;;;;;;;4.33;1.40;;;;;;;;;;5056839;28;20525;-77
2023/08/09 08:25:55;;;;;;;3.73;1.73;;;;;;;;;;5075369;28;20456;-76
2023/08/09 08:28:23;;;;;;;3.53;1.17;;;;;;;;;;5076880;28;20449;-77
2023/08/09 08:31:04;;;;;;;2.40;1.27;;;;;;;;;;5075658;28;20502;-77
2023/08/09 08:33:32;;;;;;;4.40;1.53;;;;;;;;;;5078468;28;20495;-78
2023/08/09 08:36:00;;;;;;;6.60;1.63;;;;;;;;;;5068308;28;20581;-78
2023/08/09 08:38:28;;;;;;;4.60;1.63;;;;;;;;;;5072607;28;20444;-76
2023/08/09 08:41:00;;;;;;;3.20;1.20;;;;;;;;;;5079853;28;20518;-76
2023/08/09 08:43:27;;;;;;;3.77;1.67;;;;;;;;;;5078422;28;20544;-78
2023/08/09 08:45:58;;;;;;;8.23;1.63;;;;;;;;;;5076785;28;20456;-76
2023/08/09 08:48:26;;;;;;;11.37;3.03;;;;;;;;;;5060821;28;20457;-79
2023/08/09 08:51:01;;;;;;;5.00;1.67;;;;;;;;;;5056832;28;20441;-77
2023/08/09 08:53:31;;;;;;;9.93;6.30;;;;;;;;;;5071914;28;20476;-78
2023/08/09 08:55:59;;;;;;;3.20;1.90;;;;;;;;;;5064357;28;20458;-79
2023/08/09 08:58:26;;;;;;;9.23;3.27;;;;;;;;;;5059285;28;20464;-77
2023/08/09 09:01:06;;;;;;;4.00;1.73;;;;;;;;;;5062650;28;20457;-77
2023/08/09 09:03:34;;;;;;;5.60;1.67;;;;;;;;;;5058287;28;20457;-77
2023/08/09 09:06:22;;;;;;;4.53;1.80;;;;;;;;;;5058495;28;20449;-77
2023/08/09 09:08:55;;;;;;;5.67;1.57;;;;;;;;;;5056507;28;20466;-79
2023/08/09 09:11:23;;;;;;;3.87;1.47;;;;;;;;;;5060215;28;20481;-78
2023/08/09 09:13:51;;;;;;;4.53;1.03;;;;;;;;;;5065106;28;20520;-77
2023/08/09 09:16:22;;;;;;;9.13;1.63;;;;;;;;;;5063446;28;20717;-77
2023/08/09 09:18:56;;;;;;;4.60;1.50;;;;;;;;;;5067262;28;20461;-77
2023/08/09 09:21:30;;;;;;;8.90;1.93;;;;;;;;;;5084484;28;20476;-77
2023/08/09 09:23:58;;;;;;;5.17;1.60;;;;;;;;;;5055582;28;20559;-76
2023/08/09 09:26:26;;;;;;;4.10;1.63;;;;;;;;;;5039480;28;20545;-77
2023/08/09 09:28:53;;;;;;;3.63;1.37;;;;;;;;;;5050124;28;20480;-77
2023/08/09 09:31:39;;;;;;;10.10;2.27;;;;;;;;;;5049656;28;20471;-77
2023/08/09 09:34:09;;;;;;;4.90;1.90;;;;;;;;;;5040482;28;20476;-77
2023/08/09 09:36:40;;;;;;;3.80;1.63;;;;;;;;;;5051197;28;20525;-77
2023/08/09 09:39:11;;;;;;;4.93;1.40;;;;;;;;;;5044351;28;20565;-77
2023/08/09 09:41:40;;;;;;;4.43;1.60;;;;;;;;;;5047665;28;20469;-78
2023/08/09 09:44:08;;;;;;;8.10;2.10;;;;;;;;;;5055695;28;20458;-78
2023/08/09 09:46:45;;;;;;;5.33;2.07;;;;;;;;;;5055387;28;20467;-76
2023/08/09 09:49:16;;;;;;;8.43;1.50;;;;;;;;;;5037784;28;20549;-76
2023/08/09 09:51:46;;;;;;;10.93;1.63;;;;;;;;;;5039564;28;20479;-77
2023/08/09 09:54:22;;;;;;;2.73;1.17;;;;;;;;;;5044889;28;20476;-77
2023/08/09 09:56:52;;;;;;;3.60;1.03;;;;;;;;;;5055258;28;20465;-77
2023/08/09 09:59:20;;;;;;;5.63;1.30;;;;;;;;;;5051922;28;21016;-76
2023/08/09 10:01:49;;;;;;;7.10;2.50;;;;;;;;;;5037902;28;20469;-77
2023/08/09 10:04:17;;;;;;;5.80;1.40;;;;;;;;;;5042111;28;20523;-77
2023/08/09 10:06:47;;;;;;;5.83;3.10;;;;;;;;;;5045219;28;20860;-75
2023/08/09 10:09:15;;;;;;;3.70;1.43;;;;;;;;;;5038876;28;20904;-77
2023/08/09 10:11:45;;;;;;;5.00;1.87;;;;;;;;;;5044550;28;21111;-76
2023/08/09 10:14:14;;;;;;;3.70;1.40;;;;;;;;;;5038548;28;20576;-76
2023/08/09 10:16:43;;;;;;;5.33;1.10;;;;;;;;;;5031488;28;20450;-76
2023/08/09 10:19:16;;;;;;;4.53;1.30;;;;;;;;;;5047176;28;20560;-78
2023/08/09 10:21:43;;;;;;;4.10;1.20;;;;;;;;;;5055223;28;20924;-76
2023/08/09 10:24:14;;;;;;;2.47;1.00;;;;;;;;;;5055655;28;20484;-77
2023/08/09 10:26:44;;;;;;;3.33;1.30;;;;;;;;;;5055260;28;20496;-78
2023/08/09 10:29:13;;;;;;;3.03;1.17;;;;;;;;;;5055529;28;20465;-77
2023/08/09 10:31:51;;;;;;;2.90;1.30;;;;;;;;;;5054963;28;20487;-76
2023/08/09 10:34:25;;;;;;;3.10;1.30;;;;;;;;;;5050988;28;20500;-77
2023/08/09 10:36:54;;;;;;;4.00;0.93;;;;;;;;;;5053901;28;20717;-77
2023/08/09 10:39:22;;;;;;;5.70;1.13;;;;;;;;;;5073410;28;20720;-77
2023/08/09 10:42:00;;;;;;;5.67;1.20;;;;;;;;;;5070877;28;20453;-75
2023/08/09 10:44:38;;;;;;;3.97;0.93;;;;;;;;;;5071019;28;20514;-77
2023/08/09 10:47:07;;;;;;;3.20;1.47;;;;;;;;;;5073188;28;20448;-77
2023/08/09 10:49:52;;;;;;;9.13;2.00;;;;;;;;;;5074682;28;20547;-77
2023/08/09 10:52:24;;;;;;;5.83;1.37;;;;;;;;;;5073700;28;20516;-77
2023/08/09 10:55:09;;;;;;;4.13;1.37;;;;;;;;;;5073809;28;20579;-77
2023/08/09 10:57:42;;;;;;;8.00;1.23;;;;;;;;;;5072257;28;20436;-76
2023/08/09 11:00:14;;;;;;;4.90;1.00;;;;;;;;;;5066150;28;20460;-77
2023/08/09 11:02:49;;;;;;;3.77;1.37;;;;;;;;;;5073297;28;20585;-76
2023/08/09 11:05:20;;;;;;;2.50;1.30;;;;;;;;;;5072950;28;21700;-77
2023/08/09 11:07:53;;;;;;;4.97;1.17;;;;;;;;;;5071786;28;20462;-76
2023/08/09 11:10:38;;;;;;;3.67;1.00;;;;;;;;;;5060963;28;20453;-77
2023/08/09 11:13:14;;;;;;;3.50;0.90;;;;;;;;;;5058628;28;20536;-77
2023/08/09 11:15:53;;;;;;;6.97;1.30;;;;;;;;;;5059811;28;20464;-77
2023/08/09 11:18:20;;;;;;;2.73;1.00;;;;;;;;;;5066156;28;20463;-76
2023/08/09 11:21:00;;;;;;;3.70;1.20;;;;;;;;;;5068749;28;20503;-78
2023/08/09 11:23:28;;;;;;;4.10;1.03;;;;;;;;;;5063707;28;20894;-76
2023/08/09 11:26:00;;;;;;;2.80;1.53;;;;;;;;;;5058204;28;20496;-77
2023/08/09 11:28:49;;;;;;;3.60;1.07;;;;;;;;;;5062312;28;20460;-77
2023/08/09 11:31:40;;;;;;;3.80;0.87;;;;;;;;;;5059776;28;20466;-75
2023/08/09 11:34:09;;;;;;;2.03;0.80;;;;;;;;;;5067787;28;20487;-77
2023/08/09 11:36:41;;;;;;;5.87;1.27;;;;;;;;;;5081423;28;20930;-76
2023/08/09 11:39:10;;;;;;;5.00;1.37;;;;;;;;;;5086927;28;20483;-76
2023/08/09 11:41:46;;;;;;;2.87;1.00;;;;;;;;;;5089252;28;20466;-76
2023/08/09 11:44:15;;;;;;;6.83;1.50;;;;;;;;;;5076466;28;20488;-77
2023/08/09 11:46:50;;;;;;;3.07;1.37;;;;;;;;;;5083918;28;21294;-76
2023/08/09 11:49:44;;;;;;;3.80;0.90;;;;;;;;;;5077278;28;20847;-76
2023/08/09 11:52:23;;;;;;;4.00;1.00;;;;;;;;;;5086491;28;20469;-76
2023/08/09 11:54:53;;;;;;;3.00;1.20;;;;;;;;;;5084506;28;20491;-79
2023/08/09 11:57:23;;;;;;;5.40;1.20;;;;;;;;;;5079667;28;20461;-79
2023/08/09 11:59:51;;;;;;;4.70;1.10;;;;;;;;;;5087451;28;20470;-79
2023/08/09 12:02:19;;;;;;;2.70;1.00;;;;;;;;;;5091276;28;20549;-79
2023/08/09 12:04:47;;;;;;;3.13;0.97;;;;;;;;;;5087322;28;20503;-78
2023/08/09 12:07:18;;;;;;;4.13;1.27;;;;;;;;;;5086117;28;20492;-77
2023/08/09 12:09:46;;;;;;;3.33;1.10;;;;;;;;;;5089754;28;20455;-79
2023/08/09 12:12:24;;;;;;;3.80;1.30;;;;;;;;;;5096884;28;20473;-77
2023/08/09 12:14:54;;;;;;;5.60;2.43;;;;;;;;;;5081783;28;20476;-80
2023/08/09 12:17:34;;;;;;;5.30;2.10;;;;;;;;;;5091012;28;20536;-77
2023/08/09 12:20:44;;;;;;;2.37;0.87;;;;;;;;;;5090443;28;20451;-78
2023/08/09 12:23:14;;;;;;;2.73;0.70;;;;;;;;;;5089546;28;20495;-79
2023/08/09 12:25:43;;;;;;;3.00;0.90;;;;;;;;;;5087850;28;20447;-79
2023/08/09 12:28:15;;;;;;;6.10;1.07;;;;;;;;;;5095254;28;20472;-82
2023/08/09 12:30:44;;;;;;;3.23;1.00;;;;;;;;;;5085154;28;20437;-81
2023/08/09 12:33:12;;;;;;;4.03;1.17;;;;;;;;;;5088425;28;20455;-82
2023/08/09 12:35:41;;;;;;;5.50;1.20;;;;;;;;;;5067445;28;20505;-80
2023/08/09 12:38:10;;;;;;;7.17;2.07;;;;;;;;;;5074306;28;20465;-81
2023/08/09 12:40:39;;;;;;;3.40;1.37;;;;;;;;;;5075612;28;20484;-80
2023/08/09 12:43:07;;;;;;;4.03;0.90;;;;;;;;;;5073637;28;20495;-80
2023/08/09 12:45:35;;;;;;;3.57;0.80;;;;;;;;;;5070404;28;20452;-80
2023/08/09 12:48:03;;;;;;;4.27;1.00;;;;;;;;;;5079878;28;20452;-78
2023/08/09 12:50:31;;;;;;;3.57;0.87;;;;;;;;;;5080777;28;20685;-78
2023/08/09 12:52:58;;;;;;;4.70;1.07;;;;;;;;;;5070532;28;20500;-78
2023/08/09 12:55:28;;;;;;;2.60;1.20;;;;;;;;;;5066123;28;20510;-77
2023/08/09 12:57:57;;;;;;;4.43;0.60;;;;;;;;;;5078176;28;20464;-77
2023/08/09 13:00:25;;;;;;;2.47;0.90;;;;;;;;;;5076454;28;20444;-77
2023/08/09 13:02:55;;;;;;;1.70;0.70;;;;;;;;;;5075818;28;20498;-77
2023/08/09 13:05:30;;;;;;;4.30;0.80;;;;;;;;;;5055866;28;20457;-77
2023/08/09 13:08:01;;;;;;;2.90;0.90;;;;;;;;;;5058484;28;20457;-77
2023/08/09 13:10:29;;;;;;;2.60;1.00;;;;;;;;;;5055133;28;20513;-77
2023/08/09 13:12:59;;;;;;;3.40;1.60;;;;;;;;;;5057662;28;20453;-77
2023/08/09 13:15:26;;;;;;;2.93;1.00;;;;;;;;;;5061170;28;20838;-77
2023/08/09 13:17:56;;;;;;;6.90;3.63;;;;;;;;;;5065937;28;20464;-80
2023/08/09 13:20:33;;;;;;;3.47;1.03;;;;;;;;;;5068157;28;20473;-78
2023/08/09 13:23:01;;;;;;;4.57;1.17;;;;;;;;;;5059544;28;20560;-78
2023/08/09 13:25:28;;;;;;;3.50;1.30;;;;;;;;;;5060351;28;20453;-78
2023/08/09 13:27:58;;;;;;;4.40;1.10;;;;;;;;;;5064138;28;20484;-76
2023/08/09 13:30:27;;;;;;;4.70;0.80;;;;;;;;;;5060851;28;20456;-79
2023/08/09 13:32:55;;;;;;;4.10;1.73;;;;;;;;;;5061784;28;20511;-79
2023/08/09 13:35:23;;;;;;;2.83;0.80;;;;;;;;;;5057586;28;20500;-76
2023/08/09 13:37:53;;;;;;;3.80;0.70;;;;;;;;;;5056464;28;21089;-77
2023/08/09 13:40:21;;;;;;;3.80;1.37;;;;;;;;;;5076016;28;20452;-77
2023/08/09 13:42:49;;;;;;;5.80;1.63;;;;;;;;;;5076510;28;20461;-79
2023/08/09 13:45:16;;;;;;;3.33;1.17;;;;;;;;;;5060254;28;20435;-79
2023/08/09 13:47:45;;;;;;;3.37;1.20;;;;;;;;;;5058925;28;20446;-79
2023/08/09 13:50:15;;;;;;;2.60;1.10;;;;;;;;;;5057642;28;20559;-78
2023/08/09 13:52:43;;;;;;;2.43;1.07;;;;;;;;;;5058905;28;20441;-79
2023/08/09 13:55:25;;;;;;;4.33;1.93;;;;;;;;;;5060071;28;20481;-78
2023/08/09 13:57:56;;;;;;;3.97;1.70;;;;;;;;;;5076398;28;20475;-79
2023/08/09 14:00:25;;;;;;;4.07;1.90;;;;;;;;;;5080054;28;20437;-79
2023/08/09 14:03:02;;;;;;;6.70;1.90;;;;;;;;;;5081267;28;20456;-78
2023/08/09 14:05:30;;;;;;;2.53;1.30;;;;;;;;;;5085151;28;20524;-78
2023/08/09 14:07:58;;;;;;;3.40;1.10;;;;;;;;;;5091311;28;20519;-78
2023/08/09 14:10:25;;;;;;;6.00;1.30;;;;;;;;;;5086183;28;20583;-78
2023/08/09 14:12:55;;;;;;;3.23;0.97;;;;;;;;;;5097584;28;20475;-77
2023/08/09 14:15:22;;;;;;;3.80;1.40;;;;;;;;;;5106470;28;20590;-78
2023/08/09 14:17:59;;;;;;;5.93;1.73;;;;;;;;;;5101142;28;20451;-79
2023/08/09 14:20:40;;;;;;;4.47;2.50;;;;;;;;;;5101220;28;20558;-77
2023/08/09 14:23:11;;;;;;;4.60;1.20;;;;;;;;;;5101969;28;20512;-77
2023/08/09 14:25:40;;;;;;;4.40;1.43;;;;;;;;;;5100561;28;20490;-77
2023/08/09 14:28:10;;;;;;;4.60;1.37;;;;;;;;;;5103072;28;20448;-78
2023/08/09 14:30:39;;;;;;;7.70;1.73;;;;;;;;;;5100331;28;20489;-77
2023/08/09 14:33:08;;;;;;;4.13;1.10;;;;;;;;;;5098619;28;20456;-77
2023/08/09 14:35:38;;;;;;;5.83;1.33;;;;;;;;;;5098622;28;20544;-77
2023/08/09 14:38:05;;;;;;;3.53;1.40;;;;;;;;;;5097976;28;20579;-77
2023/08/09 14:40:35;;;;;;;2.17;0.80;;;;;;;;;;5099341;28;20466;-77
2023/08/09 14:43:09;;;;;;;4.70;1.77;;;;;;;;;;5097464;28;20490;-77
2023/08/09 14:45:37;;;;;;;2.30;1.00;;;;;;;;;;5098272;28;20435;-77
2023/08/09 14:48:05;;;;;;;6.67;1.83;;;;;;;;;;5091009;28;20456;-78
2023/08/09 14:50:32;;;;;;;2.87;1.17;;;;;;;;;;5081788;28;20448;-77
2023/08/09 14:53:02;;;;;;;15.80;1.30;;;;;;;;;;5077479;28;20794;-77
2023/08/09 14:55:30;;;;;;;4.20;1.07;;;;;;;;;;5078474;28;20492;-78
2023/08/09 14:57:58;;;;;;;5.00;1.30;;;;;;;;;;5078042;28;20635;-75